Nearby METAR Reports

 

EGEO - Oban, United Kingdom
Distance from station: SSW 18mi, 30km
Updated: 13/11/2018 08:50
NOT Current
Nearby showers, Mostly cloudy
Nearby showers, Mostly cloudy
 Wind from W
Wind: W 15 mph , 24 km/h
Temperature: 10°C
Wind Chill: 7°C
Dew Point: 8°C
Humidity: 88%
Barometer: 1007 hPa
Summary: Nearby Showers
Clouds: Mostly cloudy
Visibility: 6 miles , 10 km
Cloud details: Few Clouds 427 m
Partly cloudy 610 m
Mostly cloudy 914 m
2018/11/13 08:50 EGEO 130850Z 27013KT 9999 VCSH FEW014 SCT020 BKN030 10/08 Q1007
EGPU - Tiree, United Kingdom
Distance from station: WSW 64mi, 103km
Updated: 13/11/2018 22:50
Mist, Mostly cloudy
Mist, Mostly cloudy
 Wind from S
Wind: S 28 mph , 44 km/h
Temperature: 11°C
Dew Point: 10°C
Humidity: 94%
Barometer: 1006 hPa
Summary: Mist
Clouds: Mostly cloudy
Visibility: 2 miles , 4 km
Cloud details: Mostly cloudy 183 m
Mostly cloudy 427 m
2018/11/13 22:50 EGPU 132250Z AUTO 17024KT 4000 BR BKN006/// BKN014/// 11/10 Q1006 RERA
EGPF - Glasgow, United Kingdom
Distance from station: SSE 66mi, 107km
Updated: 13/11/2018 22:50
Light rain, Clear
Light rain, Clear
 Wind from SSE
Wind: SSE 9 mph , 15 km/h
Temperature: 11°C
Dew Point: 9°C
Humidity: 88%
Barometer: 1012 hPa
Summary: Light rain
Clouds: Clear
Visibility: 6 miles , 10 km
2018/11/13 22:50 EGPF 132250Z AUTO 16008KT 9999 -RA NCD 11/09 Q1012
 
EGPE - Inverness, United Kingdom
Distance from station: NE 71mi, 114km
Updated: 13/11/2018 22:50
Clear
Clear
 Wind from varies
Wind: varies 2 mph , 4 km/h
Temperature: 10°C
Dew Point: 6°C
Humidity: 76%
Barometer: 1009 hPa
Clouds: Clear
Visibility: 6 miles , 10 km
2018/11/13 22:50 EGPE 132250Z AUTO VRB02KT 9999 NCD 10/06 Q1009
EGPI - Islay/Port Ellen, United Kingdom
Distance from station: SSW 81mi, 131km
Updated: 13/11/2018 22:50
Light rain, Mostly cloudy
Light rain, Mostly cloudy
 Wind from SSE
Wind: SSE 20 mph , 31 km/h
Temperature: 11°C
Dew Point: 10°C
Humidity: 94%
Barometer: 1008 hPa
Summary: Light rain
Clouds: Mostly cloudy
Visibility: 3 miles , 4 km
Cloud details: Mostly cloudy 518 m
2018/11/13 22:50 EGPI 132250Z AUTO 15017KT 120V180 4300 -RA BKN017/// 11/10 Q1008
EGPN - Dundee/Riverside, United Kingdom
Distance from station: E 86mi, 138km
Updated: 13/11/2018 22:50
Partly cloudy
Partly cloudy
 Wind from WSW
Wind: WSW 5 mph , 7 km/h
Temperature: 10°C
Wind Chill: 9°C
Dew Point: 8°C
Humidity: 88%
Barometer: 1012 hPa
Clouds: Partly cloudy
Visibility: 6 miles , 10 km
Cloud details: Few Clouds 762 m
Partly cloudy 1219 m
2018/11/13 22:50 EGPN 132250Z 25004KT 9999 FEW025 SCT040 10/08 Q1012
 
EGPK - Prestwick, United Kingdom
Distance from station: SSE 88mi, 141km
Updated: 13/11/2018 22:50
Mostly cloudy
Mostly cloudy
 Wind from S
Wind: S 16 mph , 26 km/h
Temperature: 12°C
Dew Point: 9°C
Humidity: 82%
Barometer: 1012 hPa
Clouds: Mostly cloudy
Visibility: 6 miles , 10 km
Cloud details: Few Clouds 427 m
Mostly cloudy 792 m
2018/11/13 22:50 EGPK 132250Z 18014KT 9999 FEW014 BKN026 12/09 Q1012
EGPH - Edinburgh, United Kingdom
Distance from station: SE 89mi, 143km
Updated: 13/11/2018 22:50
Mostly cloudy
Mostly cloudy
 Wind from SSW
Wind: SSW 13 mph , 20 km/h
Temperature: 11°C
Dew Point: 8°C
Humidity: 82%
Barometer: 1012 hPa
Clouds: Mostly cloudy
Visibility: 6 miles , 10 km
Cloud details: Mostly cloudy 701 m
2018/11/13 22:50 EGPH 132250Z 21011KT 9999 BKN023 11/08 Q1012
EGQK - RAF Kinloss, United Kingdom
Distance from station: NE 90mi, 144km
Updated: 13/11/2018 22:50
Mostly cloudy
Mostly cloudy
 Wind from SSW
Wind: SSW 9 mph , 15 km/h
Temperature: 10°C
Wind Chill: 8°C
Dew Point: 6°C
Humidity: 76%
Barometer: 1009 hPa
Clouds: Mostly cloudy
Visibility: 6 miles , 10 km
Cloud details: Partly cloudy 1280 m
Mostly cloudy 2743 m
2018/11/13 22:50 EGQK 132250Z AUTO 21008KT 9999 SCT042/// BKN090/// 10/06 Q1009 RERA
 
EGEC - Campbeltown, United Kingdom
Distance from station: S 90mi, 145km
Updated: 13/11/2018 17:20
NOT Current
Partly cloudy
Partly cloudy
 Wind from ESE
Wind: ESE 12 mph , 19 km/h
Temperature: 9°C
Wind Chill: 6°C
Dew Point: 7°C
Humidity: 87%
Barometer: 1012 hPa
Clouds: Partly cloudy
Visibility: 6 miles , 10 km
Cloud details: Few Clouds 671 m
Partly cloudy 975 m
2018/11/13 17:20 EGEC 131720Z 12010KT 9999 FEW022 SCT032 09/07 Q1012
EGQA - Tain Range, United Kingdom
Distance from station: NNE 91mi, 146km
Updated: 13/11/2018 14:50
NOT Current
Partly cloudy
Partly cloudy
 Wind from SW
Wind: SW 13 mph , 20 km/h
Clouds: Partly cloudy
Visibility: 6 miles , 10 km
Cloud details: Few Clouds 457 m
Partly cloudy 853 m
2018/11/13 14:50 EGQA 131450Z 22011KT 9999 FEW015 SCT028 08/// Q1009 BLU
EGQL - RAF Leuchars, United Kingdom
Distance from station: ESE 93mi, 149km
Updated: 13/11/2018 22:50
Mostly cloudy
Mostly cloudy
 Wind from SW
Wind: SW 8 mph , 13 km/h
Temperature: 9°C
Wind Chill: 7°C
Dew Point: 7°C
Humidity: 87%
Barometer: 1012 hPa
Clouds: Mostly cloudy
Visibility: 6 miles , 10 km
Cloud details: Partly cloudy 1158 m
Mostly cloudy 3962 m
Mostly cloudy 5486 m
2018/11/13 22:50 EGQL 132250Z 23007KT 9999 SCT038 BKN130 BKN180 09/07 Q1012 BLU
 
EGPL - Benbecula, United Kingdom
Distance from station: WNW 96mi, 154km
Updated: 13/11/2018 22:50
Rain, Overcast
Rain, Overcast
 Wind from S
Wind: S 26 mph , 43 km/h
Temperature: 10°C
Wind Chill: 6°C
Dew Point: 10°C
Humidity: 100%
Barometer: 1004 hPa
Summary: Rain
Clouds: Overcast
Visibility: 3 miles , 5 km
Cloud details: Mostly cloudy 122 m
Overcast 274 m
2018/11/13 22:50 EGPL 132250Z AUTO 18023KT 4500 RA BKN004/// OVC009/// 10/10 Q1004
EGQS - RAF Lossiemouth, United Kingdom
Distance from station: NE 99mi, 160km
Updated: 13/11/2018 22:50
Light rain, Mostly cloudy
Light rain, Mostly cloudy
 Wind from SE
Wind: SE 8 mph , 13 km/h
Temperature: 9°C
Wind Chill: 7°C
Dew Point: 4°C
Humidity: 71%
Barometer: 1009 hPa
Summary: Light rain
Clouds: Mostly cloudy
Visibility: 6 miles , 10 km
Cloud details: Partly cloudy 1524 m
Mostly cloudy 2438 m
Mostly cloudy 3658 m
2018/11/13 22:50 EGQS 132250Z 14007KT 9999 -RA SCT050 BKN080 BKN120 09/04 Q1009 BLU
EGPO - Stornoway, United Kingdom
Distance from station: NNW 111mi, 179km
Updated: 13/11/2018 22:50
Light rain, Overcast
Light rain, Overcast
 Wind from S
Wind: S 30 mph , 48 km/h
Temperature: 11°C
Dew Point: 10°C
Humidity: 94%
Barometer: 1004 hPa
Summary: Light rain
Clouds: Overcast
Visibility: 6 miles , 10 km
Cloud details: Mostly cloudy 183 m
Overcast 488 m
2018/11/13 22:50 EGPO 132250Z AUTO 19026KT 9999 -RA BKN006/// OVC016/// 11/10 Q1004
 
EGPD - Aberdeen/Dyce, United Kingdom
Distance from station: ENE 118mi, 190km
Updated: 13/11/2018 22:50
Few Clouds
Few Clouds
 Wind from SSE
Wind: SSE 9 mph , 15 km/h
Temperature: 8°C
Wind Chill: 5°C
Dew Point: 6°C
Humidity: 87%
Barometer: 1012 hPa
Clouds: Few Clouds
Visibility: 6 miles , 10 km
Cloud details: Few Clouds 792 m
2018/11/13 22:50 EGPD 132250Z AUTO 16008KT 9999 FEW026 08/06 Q1012 NOSIG
EGAE - Eglinton/Londond, United Kingdom
Distance from station: SSW 138mi, 222km
Updated: 13/11/2018 20:50
NOT Current
Rain, Partly cloudy
Rain, Partly cloudy
 Wind from S
Wind: S 21 mph , 33 km/h
Temperature: 12°C
Dew Point: 9°C
Humidity: 82%
Barometer: 1008 hPa
Summary: Rain
Clouds: Partly cloudy
Visibility: 6 miles , 9 km
Cloud details: Few Clouds 518 m
Partly cloudy 1219 m
2018/11/13 20:50 EGAE 132050Z 19018KT 9000 RA FEW017 SCT040 12/09 Q1008
EGPC - Wick, United Kingdom
Distance from station: NNE 144mi, 232km
Updated: 13/11/2018 22:50
Clear
Clear
 Wind from S
Wind: S 22 mph , 35 km/h
Temperature: 10°C
Wind Chill: 6°C
Dew Point: 5°C
Humidity: 71%
Barometer: 1008 hPa
Clouds: Clear
Visibility: 6 miles , 10 km
2018/11/13 22:50 EGPC 132250Z AUTO 19019KT 9999 NCD 10/05 Q1008

Metar display script from Saratoga-Weather.org